createdAt,value
2022-11-28T00:00:53.353Z,937.87
2022-11-28T00:01:53.473Z,937.87
2022-11-28T00:02:53.423Z,937.85
2022-11-28T00:03:53.437Z,937.79
2022-11-28T00:04:53.375Z,937.78
2022-11-28T00:05:53.296Z,937.77
2022-11-28T00:06:53.298Z,937.76
2022-11-28T00:07:53.327Z,937.74
2022-11-28T00:08:53.342Z,937.79
2022-11-28T00:09:53.332Z,937.78
2022-11-28T00:10:53.237Z,937.78
2022-11-28T00:11:53.291Z,937.77
2022-11-28T00:12:53.216Z,937.78
2022-11-28T00:13:53.218Z,937.75
2022-11-28T00:14:53.237Z,937.75
2022-11-28T00:15:53.231Z,937.72
2022-11-28T00:16:53.220Z,937.74
2022-11-28T00:17:53.246Z,937.73
2022-11-28T00:18:53.180Z,937.69
2022-11-28T00:19:53.340Z,937.69
2022-11-28T00:20:53.161Z,937.70
2022-11-28T00:21:53.158Z,937.65
2022-11-28T00:22:53.138Z,937.65
2022-11-28T00:23:53.121Z,937.65
2022-11-28T00:24:53.540Z,937.73
2022-11-28T00:25:53.137Z,937.74
2022-11-28T00:26:53.151Z,937.67
2022-11-28T00:27:53.090Z,937.65
2022-11-28T00:28:53.079Z,937.63
2022-11-28T00:29:53.133Z,937.59
2022-11-28T00:30:53.120Z,937.56
2022-11-28T00:31:53.081Z,937.59
2022-11-28T00:32:53.059Z,937.60
2022-11-28T00:33:53.042Z,937.57
2022-11-28T00:34:52.996Z,937.58
2022-11-28T00:35:58.951Z,937.61
2022-11-28T00:36:54.098Z,937.58
2022-11-28T00:37:53.014Z,937.67
2022-11-28T00:38:52.955Z,937.64
2022-11-28T00:39:53.005Z,937.58
2022-11-28T00:40:52.927Z,937.62
2022-11-28T00:41:52.917Z,937.58
2022-11-28T00:42:52.907Z,937.56
2022-11-28T00:43:52.900Z,937.54
2022-11-28T00:44:52.961Z,937.56
2022-11-28T00:45:53.005Z,937.61
2022-11-28T00:46:52.985Z,937.59
2022-11-28T00:47:52.863Z,937.56
2022-11-28T00:48:52.845Z,937.53
2022-11-28T00:49:52.854Z,937.53
2022-11-28T00:50:52.861Z,937.48
2022-11-28T00:51:52.822Z,937.44
2022-11-28T00:52:52.916Z,937.44
2022-11-28T00:53:52.819Z,937.47
2022-11-28T00:54:52.801Z,937.51
2022-11-28T00:55:52.819Z,937.51
2022-11-28T00:56:52.784Z,937.48
2022-11-28T00:57:52.775Z,937.50
2022-11-28T00:58:52.764Z,937.47
2022-11-28T00:59:52.849Z,937.46
2022-11-28T01:00:52.782Z,937.44
2022-11-28T01:01:52.798Z,937.44
2022-11-28T01:02:52.716Z,937.42
2022-11-28T01:03:52.717Z,937.40
2022-11-28T01:04:52.723Z,937.39
2022-11-28T01:05:52.684Z,937.41
2022-11-28T01:06:52.688Z,937.39
2022-11-28T01:07:52.673Z,937.42
2022-11-28T01:08:52.774Z,937.46
2022-11-28T01:09:52.702Z,937.46
2022-11-28T01:10:52.655Z,937.43
2022-11-28T01:11:52.654Z,937.39
2022-11-28T01:12:52.627Z,937.37
2022-11-28T01:13:52.621Z,937.38
2022-11-28T01:14:52.622Z,937.41
2022-11-28T01:15:52.691Z,937.46
2022-11-28T01:16:57.569Z,937.42
2022-11-28T01:17:52.579Z,937.41
2022-11-28T01:18:52.557Z,937.42
2022-11-28T01:19:52.552Z,937.40
2022-11-28T01:20:52.522Z,937.43
2022-11-28T01:21:52.594Z,937.46
2022-11-28T01:22:52.580Z,937.48
2022-11-28T01:23:52.505Z,937.49
2022-11-28T01:24:52.698Z,937.46
2022-11-28T01:25:52.469Z,937.40
2022-11-28T01:26:52.465Z,937.43
2022-11-28T01:27:52.510Z,937.37
2022-11-28T01:28:52.476Z,937.37
2022-11-28T01:29:52.445Z,937.41
2022-11-28T01:30:52.439Z,937.37
2022-11-28T01:31:52.517Z,937.41
2022-11-28T01:32:52.402Z,937.37
2022-11-28T01:33:52.427Z,937.28
2022-11-28T01:34:52.395Z,937.25
2022-11-28T01:35:52.408Z,937.17
2022-11-28T01:36:52.392Z,937.18
2022-11-28T01:37:52.346Z,937.15
2022-11-28T01:38:52.377Z,937.08
2022-11-28T01:39:52.349Z,937.06
2022-11-28T01:40:52.431Z,937.06
2022-11-28T01:41:52.323Z,936.96
2022-11-28T01:42:52.295Z,936.89
2022-11-28T01:43:52.279Z,936.92
2022-11-28T01:44:52.288Z,936.93
2022-11-28T01:45:52.247Z,936.86
2022-11-28T01:46:52.320Z,936.86
2022-11-28T01:47:52.229Z,936.96
2022-11-28T01:48:52.229Z,937.21
2022-11-28T01:49:52.331Z,937.27
2022-11-28T01:50:52.210Z,937.10
2022-11-28T01:51:52.203Z,937.05
2022-11-28T01:52:52.207Z,937.00
2022-11-28T01:53:52.194Z,936.99
2022-11-28T01:54:52.178Z,937.00
2022-11-28T01:55:52.179Z,936.96
2022-11-28T01:56:52.282Z,937.03
2022-11-28T01:57:59.625Z,937.00
2022-11-28T01:58:52.119Z,937.03
2022-11-28T01:59:52.231Z,937.06
2022-11-28T02:00:52.161Z,937.12
2022-11-28T02:01:52.149Z,937.14
2022-11-28T02:02:52.082Z,937.14
2022-11-28T02:03:52.068Z,937.14
2022-11-28T02:04:52.067Z,937.20
2022-11-28T02:05:52.554Z,937.11
2022-11-28T02:06:52.047Z,936.99
2022-11-28T02:07:52.178Z,936.90
2022-11-28T02:08:52.045Z,936.82
2022-11-28T02:09:52.017Z,936.83
2022-11-28T02:10:52.094Z,936.85
2022-11-28T02:11:51.983Z,936.90
2022-11-28T02:12:52.104Z,936.94
2022-11-28T02:13:51.972Z,936.89
2022-11-28T02:14:51.947Z,936.79
2022-11-28T02:15:52.021Z,936.61
2022-11-28T02:16:52.042Z,936.58
2022-11-28T02:17:51.944Z,936.61
2022-11-28T02:18:51.914Z,936.61
2022-11-28T02:19:51.980Z,936.62
2022-11-28T02:20:51.891Z,936.69
2022-11-28T02:21:51.914Z,936.72
2022-11-28T02:22:51.917Z,936.77
2022-11-28T02:23:51.856Z,936.72
2022-11-28T02:24:51.911Z,936.66
2022-11-28T02:25:51.896Z,936.61
2022-11-28T02:26:51.855Z,936.61
2022-11-28T02:27:51.865Z,936.63
2022-11-28T02:28:51.953Z,936.68
2022-11-28T02:29:51.795Z,936.69
2022-11-28T02:30:51.831Z,936.69
2022-11-28T02:31:51.895Z,936.81
2022-11-28T02:32:51.894Z,936.83
2022-11-28T02:33:51.928Z,936.73
2022-11-28T02:34:52.309Z,936.70
2022-11-28T02:35:51.863Z,936.60
2022-11-28T02:36:51.794Z,936.52
2022-11-28T02:37:51.702Z,936.49
2022-11-28T02:38:51.725Z,936.54
2022-11-28T02:39:51.755Z,936.57
2022-11-28T02:40:51.695Z,936.66
2022-11-28T02:41:51.722Z,936.67
2022-11-28T02:42:51.667Z,936.68
2022-11-28T02:43:51.661Z,936.59
2022-11-28T02:44:51.810Z,936.53
2022-11-28T02:45:51.637Z,936.46
2022-11-28T02:46:51.693Z,936.50
2022-11-28T02:47:56.564Z,936.43
2022-11-28T02:48:51.595Z,936.41
2022-11-28T02:49:51.596Z,936.30
2022-11-28T02:50:51.628Z,936.25
2022-11-28T02:51:51.563Z,936.22
2022-11-28T02:52:51.584Z,936.21
2022-11-28T02:53:51.556Z,936.20
2022-11-28T02:54:51.526Z,936.16
2022-11-28T02:55:51.518Z,936.07
2022-11-28T02:56:51.537Z,936.00
2022-11-28T02:57:51.498Z,935.98
2022-11-28T02:58:51.504Z,935.89
2022-11-28T02:59:51.518Z,935.87
2022-11-28T03:00:51.648Z,935.86
2022-11-28T03:01:51.491Z,935.86
2022-11-28T03:02:51.445Z,935.84
2022-11-28T03:03:51.558Z,935.78
2022-11-28T03:04:51.425Z,935.74
2022-11-28T03:05:51.416Z,935.81
2022-11-28T03:06:51.510Z,935.86
2022-11-28T03:07:51.469Z,935.96
2022-11-28T03:08:51.422Z,935.94
2022-11-28T03:09:51.389Z,935.89
2022-11-28T03:10:51.380Z,935.87
2022-11-28T03:11:51.444Z,935.85
2022-11-28T03:12:51.407Z,935.75
2022-11-28T03:13:51.356Z,935.75
2022-11-28T03:14:51.337Z,935.72
2022-11-28T03:15:51.436Z,935.80
2022-11-28T03:16:51.410Z,935.80
2022-11-28T03:18:02.304Z,935.80
2022-11-28T03:18:51.326Z,935.80
2022-11-28T03:19:51.360Z,935.76
2022-11-28T03:20:51.262Z,935.74
2022-11-28T03:21:51.372Z,935.76
2022-11-28T03:22:51.258Z,935.79
2022-11-28T03:23:51.330Z,935.75
2022-11-28T03:24:51.215Z,935.71
2022-11-28T03:25:51.211Z,935.68
2022-11-28T03:26:51.240Z,935.65
2022-11-28T03:27:51.211Z,935.66
2022-11-28T03:28:51.243Z,935.65
2022-11-28T03:29:51.217Z,935.62
2022-11-28T03:30:51.171Z,935.63
2022-11-28T03:31:51.261Z,935.67
2022-11-28T03:32:51.240Z,935.71
2022-11-28T03:33:51.175Z,935.68
2022-11-28T03:34:51.129Z,935.77
2022-11-28T03:35:51.105Z,935.73
2022-11-28T03:36:51.124Z,935.77
2022-11-28T03:37:51.091Z,935.81
2022-11-28T03:38:51.113Z,935.83
2022-11-28T03:39:51.053Z,935.87
2022-11-28T03:40:51.040Z,935.96
2022-11-28T03:41:51.080Z,936.04
2022-11-28T03:42:51.035Z,936.11
2022-11-28T03:43:51.027Z,936.20
2022-11-28T03:44:51.023Z,936.26
2022-11-28T03:45:50.990Z,936.18
2022-11-28T03:46:51.096Z,936.11
2022-11-28T03:47:51.008Z,936.03
2022-11-28T03:48:51.135Z,936.07
2022-11-28T03:49:51.033Z,936.02
2022-11-28T03:50:50.973Z,936.09
2022-11-28T03:51:51.512Z,936.12
2022-11-28T03:52:50.917Z,936.10
2022-11-28T03:53:50.901Z,936.08
2022-11-28T03:54:50.900Z,936.04
2022-11-28T03:55:50.946Z,936.01
2022-11-28T03:56:50.902Z,936.08
2022-11-28T03:57:50.874Z,936.08
2022-11-28T03:58:50.887Z,936.09
2022-11-28T03:59:50.868Z,936.07
2022-11-28T04:00:50.865Z,936.07
2022-11-28T04:01:50.851Z,936.14
2022-11-28T04:02:50.842Z,936.22
2022-11-28T04:03:50.805Z,936.19
2022-11-28T04:04:50.903Z,936.24
2022-11-28T04:05:50.816Z,936.30
2022-11-28T04:06:50.793Z,936.37
2022-11-28T04:07:50.810Z,936.42
2022-11-28T04:08:50.765Z,936.35
2022-11-28T04:09:50.761Z,936.36
2022-11-28T04:10:50.752Z,936.30
2022-11-28T04:11:50.807Z,936.31
2022-11-28T04:12:50.715Z,936.29
2022-11-28T04:13:50.690Z,936.32
2022-11-28T04:14:50.698Z,936.38
2022-11-28T04:15:50.757Z,936.41
2022-11-28T04:16:53.993Z,936.39
2022-11-28T04:17:50.718Z,936.37
2022-11-28T04:18:50.687Z,936.37
2022-11-28T04:19:50.657Z,936.38
2022-11-28T04:20:50.765Z,936.37
2022-11-28T04:21:50.611Z,936.31
2022-11-28T04:22:50.594Z,936.39
2022-11-28T04:23:50.579Z,936.37
2022-11-28T04:24:50.647Z,936.37
2022-11-28T04:25:50.562Z,936.42
2022-11-28T04:26:50.551Z,936.43
2022-11-28T04:27:50.564Z,936.44
2022-11-28T04:28:50.539Z,936.43
2022-11-28T04:29:50.596Z,936.42
2022-11-28T04:30:50.521Z,936.45
2022-11-28T04:31:50.616Z,936.43
2022-11-28T04:32:50.531Z,936.43
2022-11-28T04:33:50.523Z,936.46
2022-11-28T04:34:50.463Z,936.39
2022-11-28T04:35:50.462Z,936.42
2022-11-28T04:36:50.571Z,936.39
2022-11-28T04:37:50.468Z,936.40
2022-11-28T04:38:50.454Z,936.40
2022-11-28T04:39:50.414Z,936.40
2022-11-28T04:40:50.409Z,936.37
2022-11-28T04:41:50.400Z,936.40
2022-11-28T04:42:52.993Z,936.45
2022-11-28T04:43:50.383Z,936.40
2022-11-28T04:44:50.424Z,936.42
2022-11-28T04:45:50.434Z,936.38
2022-11-28T04:46:50.484Z,936.40
2022-11-28T04:47:50.362Z,936.42
2022-11-28T04:48:50.323Z,936.37
2022-11-28T04:49:50.314Z,936.39
2022-11-28T04:50:50.318Z,936.37
2022-11-28T04:51:50.397Z,936.37
2022-11-28T04:52:50.419Z,936.38
2022-11-28T04:53:50.298Z,936.31
2022-11-28T04:54:50.280Z,936.33
2022-11-28T04:55:50.291Z,936.27
2022-11-28T04:56:50.310Z,936.29
2022-11-28T04:57:55.746Z,936.29
2022-11-28T04:58:51.235Z,936.32
2022-11-28T04:59:50.242Z,936.28
2022-11-28T05:00:50.277Z,936.31
2022-11-28T05:01:50.272Z,936.32
2022-11-28T05:02:50.195Z,936.28
2022-11-28T05:03:50.164Z,936.26
2022-11-28T05:04:50.154Z,936.23
2022-11-28T05:05:50.174Z,936.18
2022-11-28T05:06:50.133Z,936.15
2022-11-28T05:07:50.184Z,936.07
2022-11-28T05:08:50.671Z,936.04
2022-11-28T05:09:50.103Z,936.01
2022-11-28T05:10:50.090Z,935.96
2022-11-28T05:11:50.178Z,935.94
2022-11-28T05:12:50.096Z,935.94
2022-11-28T05:13:50.051Z,935.96
2022-11-28T05:14:50.070Z,935.92
2022-11-28T05:15:50.038Z,935.95
2022-11-28T05:16:50.172Z,935.97
2022-11-28T05:17:54.554Z,936.01
2022-11-28T05:18:50.054Z,935.99
2022-11-28T05:19:50.004Z,935.91
2022-11-28T05:20:49.989Z,935.89
2022-11-28T05:21:49.976Z,935.88
2022-11-28T05:22:50.015Z,935.93
2022-11-28T05:23:49.950Z,935.84
2022-11-28T05:24:50.053Z,935.91
2022-11-28T05:25:49.940Z,935.92
2022-11-28T05:26:49.939Z,935.94
2022-11-28T05:27:49.984Z,935.97
2022-11-28T05:28:49.918Z,936.00
2022-11-28T05:29:52.317Z,935.99
2022-11-28T05:30:49.889Z,936.06
2022-11-28T05:31:49.946Z,936.12
2022-11-28T05:32:49.867Z,936.10
2022-11-28T05:33:49.845Z,936.12
2022-11-28T05:34:49.853Z,936.09
2022-11-28T05:35:49.923Z,936.08
2022-11-28T05:36:49.804Z,936.06
2022-11-28T05:37:49.804Z,936.06
2022-11-28T05:38:49.784Z,936.09
2022-11-28T05:39:49.821Z,936.07
2022-11-28T05:40:49.893Z,936.08
2022-11-28T05:41:49.770Z,936.08
2022-11-28T05:42:49.746Z,936.05
2022-11-28T05:43:49.747Z,935.99
2022-11-28T05:44:49.741Z,936.01
2022-11-28T05:45:49.749Z,935.99
2022-11-28T05:46:49.734Z,935.98
2022-11-28T05:47:49.692Z,935.91
2022-11-28T05:48:49.696Z,935.96
2022-11-28T05:49:49.678Z,935.96
2022-11-28T05:50:49.662Z,935.95
2022-11-28T05:51:49.676Z,935.94
2022-11-28T05:52:49.656Z,935.92
2022-11-28T05:53:49.636Z,935.86
2022-11-28T05:54:49.616Z,935.86
2022-11-28T05:55:49.611Z,935.83
2022-11-28T05:56:49.785Z,935.75
2022-11-28T05:57:49.685Z,935.73
2022-11-28T05:58:49.572Z,935.69
2022-11-28T05:59:49.572Z,935.67
2022-11-28T06:00:49.597Z,935.66
2022-11-28T06:01:49.629Z,935.64
2022-11-28T06:02:49.527Z,935.65
2022-11-28T06:03:49.520Z,935.75
2022-11-28T06:04:49.595Z,935.82
2022-11-28T06:05:49.581Z,935.81
2022-11-28T06:06:49.483Z,935.88
2022-11-28T06:07:49.558Z,935.82
2022-11-28T06:08:49.467Z,935.78
2022-11-28T06:09:49.479Z,935.75
2022-11-28T06:10:49.572Z,935.80
2022-11-28T06:11:49.439Z,935.79
2022-11-28T06:12:49.556Z,935.75
2022-11-28T06:13:49.423Z,935.75
2022-11-28T06:14:49.417Z,935.83
2022-11-28T06:15:49.398Z,935.89
2022-11-28T06:16:49.460Z,935.94
2022-11-28T06:17:49.425Z,936.04
2022-11-28T06:18:49.379Z,936.03
2022-11-28T06:19:49.355Z,936.04
2022-11-28T06:20:49.343Z,936.06
2022-11-28T06:21:49.407Z,936.10
2022-11-28T06:22:49.322Z,936.06
2022-11-28T06:23:49.315Z,936.06
2022-11-28T06:24:49.306Z,936.16
2022-11-28T06:25:49.315Z,936.09
2022-11-28T06:26:49.283Z,936.04
2022-11-28T06:27:49.279Z,936.03
2022-11-28T06:28:49.382Z,936.03
2022-11-28T06:29:49.271Z,936.05
2022-11-28T06:30:49.227Z,936.08
2022-11-28T06:31:49.312Z,936.05
2022-11-28T06:32:49.208Z,936.09
2022-11-28T06:33:49.207Z,936.04
2022-11-28T06:34:49.208Z,936.02
2022-11-28T06:35:49.190Z,936.01
2022-11-28T06:36:49.172Z,936.00
2022-11-28T06:37:49.175Z,935.98
2022-11-28T06:38:49.160Z,935.96
2022-11-28T06:39:49.368Z,935.99
2022-11-28T06:40:49.134Z,935.95
2022-11-28T06:41:49.138Z,935.89
2022-11-28T06:42:49.113Z,935.88
2022-11-28T06:43:49.100Z,935.90
2022-11-28T06:44:49.197Z,935.93
2022-11-28T06:45:49.172Z,935.89
2022-11-28T06:46:49.082Z,935.86
2022-11-28T06:47:49.147Z,935.84
2022-11-28T06:48:49.061Z,935.83
2022-11-28T06:49:49.066Z,935.80
2022-11-28T06:50:49.030Z,935.83
2022-11-28T06:51:49.036Z,935.82
2022-11-28T06:52:49.015Z,935.83
2022-11-28T06:53:49.046Z,935.78
2022-11-28T06:54:48.998Z,935.80
2022-11-28T06:55:48.977Z,935.72
2022-11-28T06:56:48.965Z,935.71
2022-11-28T06:57:49.047Z,935.70
2022-11-28T06:58:56.493Z,935.70
2022-11-28T06:59:48.934Z,935.70
2022-11-28T07:00:49.114Z,935.71
2022-11-28T07:01:48.970Z,935.72
2022-11-28T07:02:49.016Z,935.76
2022-11-28T07:03:48.889Z,935.70
2022-11-28T07:04:48.879Z,935.73
2022-11-28T07:05:48.870Z,935.73
2022-11-28T07:06:48.865Z,935.67
2022-11-28T07:07:54.276Z,935.69
2022-11-28T07:08:49.899Z,935.73
2022-11-28T07:09:48.829Z,935.70
2022-11-28T07:10:48.851Z,935.69
2022-11-28T07:11:48.810Z,935.71
2022-11-28T07:12:48.807Z,935.71
2022-11-28T07:13:48.858Z,935.69
2022-11-28T07:14:48.860Z,935.68
2022-11-28T07:15:48.771Z,935.69
2022-11-28T07:16:48.923Z,935.66
2022-11-28T07:17:48.748Z,935.67
2022-11-28T07:18:48.738Z,935.67
2022-11-28T07:19:54.624Z,935.67
2022-11-28T07:20:49.714Z,935.70
2022-11-28T07:21:48.711Z,935.67
2022-11-28T07:22:48.706Z,935.71
2022-11-28T07:23:48.682Z,935.65
2022-11-28T07:24:49.603Z,935.71
2022-11-28T07:25:48.713Z,935.68
2022-11-28T07:26:48.703Z,935.74
2022-11-28T07:27:48.643Z,935.68
2022-11-28T07:28:48.645Z,935.72
2022-11-28T07:29:48.635Z,935.70
2022-11-28T07:30:48.633Z,935.65
2022-11-28T07:31:48.660Z,935.61
2022-11-28T07:32:49.230Z,935.60
2022-11-28T07:33:48.617Z,935.63
2022-11-28T07:34:50.203Z,935.57
2022-11-28T07:35:48.555Z,935.58
2022-11-28T07:36:48.602Z,935.57
2022-11-28T07:37:48.538Z,935.63
2022-11-28T07:38:48.533Z,935.69
2022-11-28T07:39:48.515Z,935.73
2022-11-28T07:40:48.511Z,935.77
2022-11-28T07:41:48.568Z,935.77
2022-11-28T07:42:48.553Z,935.70
2022-11-28T07:43:48.492Z,935.71
2022-11-28T07:44:48.471Z,935.76
2022-11-28T07:46:00.528Z,935.75
2022-11-28T07:46:49.566Z,935.71
2022-11-28T07:47:48.494Z,935.72
2022-11-28T07:48:48.537Z,935.72
2022-11-28T07:49:48.442Z,935.72
2022-11-28T07:50:48.436Z,935.75
2022-11-28T07:51:48.445Z,935.73
2022-11-28T07:52:48.426Z,935.77
2022-11-28T07:53:48.402Z,935.79
2022-11-28T07:54:48.414Z,935.80
2022-11-28T07:55:48.372Z,935.78
2022-11-28T07:57:49.369Z,935.80
2022-11-28T07:58:48.405Z,935.82
2022-11-28T07:59:48.321Z,935.82
2022-11-28T08:00:48.352Z,935.80
2022-11-28T08:01:48.368Z,935.82
2022-11-28T08:02:48.281Z,935.83
2022-11-28T08:03:48.289Z,935.81
2022-11-28T08:04:52.751Z,935.75
2022-11-28T08:05:49.274Z,935.78
2022-11-28T08:06:48.241Z,935.76
2022-11-28T08:07:48.285Z,935.70
2022-11-28T08:08:48.260Z,935.74
2022-11-28T08:09:48.231Z,935.72
2022-11-28T08:10:48.232Z,935.75
2022-11-28T08:11:48.189Z,935.71
2022-11-28T08:12:48.182Z,935.70
2022-11-28T08:13:48.213Z,935.73
2022-11-28T08:14:48.184Z,935.75
2022-11-28T08:15:48.141Z,935.72
2022-11-28T08:16:48.221Z,935.72
2022-11-28T08:17:48.151Z,935.76
2022-11-28T08:18:48.109Z,935.73
2022-11-28T08:19:48.132Z,935.79
2022-11-28T08:20:48.119Z,935.77
2022-11-28T08:21:48.078Z,935.80
2022-11-28T08:22:48.071Z,935.80
2022-11-28T08:23:48.068Z,935.82
2022-11-28T08:24:48.056Z,935.82
2022-11-28T08:25:48.073Z,935.84
2022-11-28T08:26:48.022Z,935.86
2022-11-28T08:27:48.019Z,935.85
2022-11-28T08:28:48.004Z,935.86
2022-11-28T08:29:51.963Z,935.89
2022-11-28T08:30:49.131Z,935.92
2022-11-28T08:31:47.965Z,935.91
2022-11-28T08:32:47.959Z,935.89
2022-11-28T08:33:47.957Z,935.95
2022-11-28T08:34:47.948Z,935.90
2022-11-28T08:35:47.947Z,935.95
2022-11-28T08:36:47.968Z,935.96
2022-11-28T08:37:47.906Z,935.90
2022-11-28T08:39:03.461Z,935.96
2022-11-28T08:39:48.890Z,935.94
2022-11-28T08:40:47.880Z,935.94
2022-11-28T08:41:47.905Z,935.95
2022-11-28T08:42:47.865Z,935.93
2022-11-28T08:43:47.853Z,935.95
2022-11-28T08:44:47.867Z,935.91
2022-11-28T08:45:47.868Z,935.94
2022-11-28T08:46:47.828Z,935.92
2022-11-28T08:47:47.905Z,935.92
2022-11-28T08:48:47.797Z,935.87
2022-11-28T08:49:47.777Z,935.91
2022-11-28T08:50:48.228Z,935.92
2022-11-28T08:51:47.776Z,935.88
2022-11-28T08:52:47.797Z,935.93
2022-11-28T08:53:49.464Z,935.90
2022-11-28T08:54:47.758Z,935.88
2022-11-28T08:55:47.719Z,935.92
2022-11-28T08:56:47.750Z,935.94
2022-11-28T08:57:47.725Z,935.96
2022-11-28T08:58:47.691Z,935.94
2022-11-28T08:59:47.701Z,935.94
2022-11-28T09:00:47.680Z,935.92
2022-11-28T09:01:47.751Z,935.95
2022-11-28T09:02:47.657Z,935.90
2022-11-28T09:03:47.680Z,935.96
2022-11-28T09:04:47.698Z,935.96
2022-11-28T09:05:47.620Z,935.94
2022-11-28T09:06:47.604Z,935.97
2022-11-28T09:07:47.667Z,935.92
2022-11-28T09:08:47.602Z,935.92
2022-11-28T09:09:48.112Z,935.93
2022-11-28T09:10:47.604Z,935.90
2022-11-28T09:11:47.545Z,935.92
2022-11-28T09:12:47.542Z,935.98
2022-11-28T09:13:47.529Z,935.98
2022-11-28T09:14:47.525Z,935.97
2022-11-28T09:15:51.250Z,935.97
2022-11-28T09:16:48.759Z,936.01
2022-11-28T09:17:47.578Z,936.04
2022-11-28T09:18:47.491Z,936.06
2022-11-28T09:19:47.510Z,936.03
2022-11-28T09:20:47.527Z,935.99
2022-11-28T09:21:47.448Z,935.96
2022-11-28T09:22:47.480Z,935.92
2022-11-28T09:23:47.513Z,935.93
2022-11-28T09:24:47.442Z,935.97
2022-11-28T09:25:47.448Z,935.94
2022-11-28T09:26:47.501Z,935.96
2022-11-28T09:27:47.443Z,935.98
2022-11-28T09:28:47.376Z,935.96
2022-11-28T09:29:47.368Z,935.93
2022-11-28T09:30:47.442Z,935.96
2022-11-28T09:31:47.829Z,935.92
2022-11-28T09:32:47.336Z,935.90
2022-11-28T09:33:47.336Z,935.91
2022-11-28T09:34:47.342Z,935.88
2022-11-28T09:35:47.327Z,935.87
2022-11-28T09:36:47.334Z,935.88
2022-11-28T09:37:47.317Z,935.86
2022-11-28T09:38:47.271Z,935.91
2022-11-28T09:40:11.587Z,935.89
2022-11-28T09:40:48.290Z,935.87
2022-11-28T09:41:47.238Z,935.85
2022-11-28T09:42:47.255Z,935.87
2022-11-28T09:43:52.039Z,935.82
2022-11-28T09:44:48.208Z,935.88
2022-11-28T09:45:47.211Z,935.85
2022-11-28T09:46:47.372Z,935.90
2022-11-28T09:47:47.216Z,935.91
2022-11-28T09:48:47.182Z,935.92
2022-11-28T09:49:47.619Z,935.94
2022-11-28T09:50:47.170Z,935.89
2022-11-28T09:51:47.128Z,935.92
2022-11-28T09:52:47.147Z,935.93
2022-11-28T09:53:47.109Z,935.92
2022-11-28T09:54:47.143Z,935.91
2022-11-28T09:55:47.086Z,935.98
2022-11-28T09:56:47.100Z,935.92
2022-11-28T09:57:47.152Z,935.91
2022-11-28T09:58:47.056Z,935.90
2022-11-28T09:59:47.047Z,935.86
2022-11-28T10:00:50.250Z,935.88
2022-11-28T10:01:48.034Z,935.89
2022-11-28T10:02:47.004Z,935.89
2022-11-28T10:03:47.094Z,935.89
2022-11-28T10:04:47.027Z,935.94
2022-11-28T10:05:47.034Z,935.94
2022-11-28T10:06:46.968Z,935.94
2022-11-28T10:07:49.923Z,935.89
2022-11-28T10:08:47.958Z,935.88
2022-11-28T10:09:46.934Z,935.87
2022-11-28T10:10:46.930Z,935.94
2022-11-28T10:11:47.008Z,935.91
2022-11-28T10:12:46.941Z,935.86
2022-11-28T10:14:07.362Z,935.86
2022-11-28T10:14:47.921Z,935.84
2022-11-28T10:15:46.905Z,935.87
2022-11-28T10:16:47.062Z,935.86
2022-11-28T10:17:46.970Z,935.88
2022-11-28T10:18:46.847Z,935.84
2022-11-28T10:19:54.278Z,935.81
2022-11-28T10:20:47.836Z,935.82
2022-11-28T10:21:46.861Z,935.82
2022-11-28T10:22:46.866Z,935.80
2022-11-28T10:23:46.783Z,935.74
2022-11-28T10:24:46.809Z,935.77
2022-11-28T10:25:46.766Z,935.77
2022-11-28T10:26:46.823Z,935.74
2022-11-28T10:27:46.746Z,935.73
2022-11-28T10:28:46.759Z,935.75
2022-11-28T10:29:46.724Z,935.71
2022-11-28T10:30:46.846Z,935.65
2022-11-28T10:31:46.733Z,935.64
2022-11-28T10:32:46.716Z,935.64
2022-11-28T10:33:46.760Z,935.63
2022-11-28T10:34:46.686Z,935.64
2022-11-28T10:35:46.710Z,935.59
2022-11-28T10:36:46.647Z,935.61
2022-11-28T10:37:46.647Z,935.64
2022-11-28T10:38:46.626Z,935.61
2022-11-28T10:39:46.640Z,935.59
2022-11-28T10:40:46.603Z,935.59
2022-11-28T10:41:46.587Z,935.57
2022-11-28T10:42:46.592Z,935.53
2022-11-28T10:43:46.615Z,935.51
2022-11-28T10:44:46.627Z,935.49
2022-11-28T10:45:46.633Z,935.45
2022-11-28T10:46:46.571Z,935.42
2022-11-28T10:47:46.726Z,935.44
2022-11-28T10:48:46.518Z,935.47
2022-11-28T10:49:46.508Z,935.47
2022-11-28T10:50:46.532Z,935.46
2022-11-28T10:51:46.505Z,935.47
2022-11-28T10:52:46.474Z,935.47
2022-11-28T10:53:46.461Z,935.46
2022-11-28T10:54:46.451Z,935.43
2022-11-28T10:55:46.442Z,935.40
2022-11-28T10:56:46.468Z,935.37
2022-11-28T10:57:46.416Z,935.39
2022-11-28T10:58:46.504Z,935.38
2022-11-28T10:59:46.402Z,935.36
2022-11-28T11:00:46.427Z,935.37
2022-11-28T11:01:50.115Z,935.39
2022-11-28T11:02:46.387Z,935.34
2022-11-28T11:03:46.353Z,935.37
2022-11-28T11:04:46.423Z,935.36
2022-11-28T11:05:46.336Z,935.37
2022-11-28T11:07:06.838Z,935.38
2022-11-28T11:07:47.389Z,935.38
2022-11-28T11:08:46.340Z,935.44
2022-11-28T11:09:46.513Z,935.46
2022-11-28T11:10:46.281Z,935.48
2022-11-28T11:11:46.312Z,935.48
2022-11-28T11:12:46.256Z,935.45
2022-11-28T11:13:46.253Z,935.48
2022-11-28T11:14:46.281Z,935.40
2022-11-28T11:15:46.365Z,935.42
2022-11-28T11:16:46.368Z,935.49
2022-11-28T11:17:46.275Z,935.47
2022-11-28T11:18:46.193Z,935.46
2022-11-28T11:19:46.285Z,935.44
2022-11-28T11:20:46.184Z,935.49
2022-11-28T11:21:46.167Z,935.43
2022-11-28T11:22:46.265Z,935.46
2022-11-28T11:23:46.142Z,935.42
2022-11-28T11:24:46.139Z,935.47
2022-11-28T11:25:46.123Z,935.45
2022-11-28T11:26:46.145Z,935.44
2022-11-28T11:27:46.113Z,935.44
2022-11-28T11:28:46.110Z,935.42
2022-11-28T11:29:49.269Z,935.45
2022-11-28T11:30:47.131Z,935.41
2022-11-28T11:31:46.119Z,935.42
2022-11-28T11:32:51.112Z,935.43
2022-11-28T11:33:47.033Z,935.41
2022-11-28T11:34:46.035Z,935.38
2022-11-28T11:35:46.075Z,935.39
2022-11-28T11:36:46.026Z,935.42
2022-11-28T11:37:45.996Z,935.38
2022-11-28T11:38:45.988Z,935.42
2022-11-28T11:39:45.983Z,935.37
2022-11-28T11:40:45.968Z,935.37
2022-11-28T11:41:45.986Z,935.40
2022-11-28T11:42:45.976Z,935.40
2022-11-28T11:43:45.940Z,935.38
2022-11-28T11:44:45.945Z,935.35
2022-11-28T11:45:51.170Z,935.38
2022-11-28T11:46:47.251Z,935.38
2022-11-28T11:47:45.961Z,935.37
2022-11-28T11:48:45.947Z,935.37
2022-11-28T11:49:46.214Z,935.40
2022-11-28T11:50:45.847Z,935.36
2022-11-28T11:51:45.840Z,935.35
2022-11-28T11:52:45.872Z,935.33
2022-11-28T11:53:45.873Z,935.32
2022-11-28T11:54:45.999Z,935.34
2022-11-28T11:55:45.850Z,935.26
2022-11-28T11:56:45.898Z,935.30
2022-11-28T11:57:45.781Z,935.28
2022-11-28T11:58:46.026Z,935.27
2022-11-28T11:59:53.323Z,935.27
2022-11-28T12:00:45.776Z,935.24
2022-11-28T12:01:45.750Z,935.23
2022-11-28T12:02:45.849Z,935.28
2022-11-28T12:03:45.763Z,935.18
2022-11-28T12:04:49.047Z,935.18
2022-11-28T12:06:12.752Z,935.19
2022-11-28T12:06:46.683Z,935.20
2022-11-28T12:07:45.713Z,935.18
2022-11-28T12:08:45.707Z,935.19
2022-11-28T12:09:46.130Z,935.19
2022-11-28T12:10:45.634Z,935.19
2022-11-28T12:12:46.615Z,935.16
2022-11-28T12:13:45.685Z,935.19
2022-11-28T12:14:46.046Z,935.19
2022-11-28T12:15:45.671Z,935.18
2022-11-28T12:16:45.822Z,935.17
2022-11-28T12:18:21.246Z,935.16
2022-11-28T12:18:45.573Z,935.18
2022-11-28T12:19:45.606Z,935.19
2022-11-28T12:20:45.589Z,935.17
2022-11-28T12:21:45.629Z,935.21
2022-11-28T12:22:45.526Z,935.22
2022-11-28T12:23:45.509Z,935.20
2022-11-28T12:24:45.545Z,935.21
2022-11-28T12:25:45.637Z,935.18
2022-11-28T12:26:45.677Z,935.18
2022-11-28T12:27:45.451Z,935.16
2022-11-28T12:28:45.439Z,935.19
2022-11-28T12:29:45.885Z,935.13
2022-11-28T12:30:45.565Z,935.14